Time;durP1;ratioP1;P1;durP2;ratioP2;P2;SDS_P1;SDS_P2;PMS_P1;PMS_P2;Temp;Humidity;BMP_temperature;BMP_pressure;BME280_temperature;BME280_humidity;BME280_pressure;Samples;Min_cycle;Max_cycle;Signal;HPM_P1;HPM_P2
2022/02/02 00:00:38;;;;;;;112.28;77.28;;;;;;;5.36;83.32;99656.97;5093248;28;20021;-50
2022/02/02 00:03:11;;;;;;;142.77;99.10;;;;;;;5.43;83.48;99641.59;5093168;28;20440;-50
2022/02/02 00:08:15;;;;;;;18.67;15.27;;;;;;;5.27;82.94;99620.56;5093152;28;20059;-50
2022/02/02 00:13:38;;;;;;;34.00;19.75;;;;;;;5.11;83.82;99632.41;5093020;28;20032;-50
2022/02/02 00:18:57;;;;;;;16.73;10.45;;;;;;;5.49;83.47;99620.19;5092997;28;20047;-50
2022/02/02 00:21:39;;;;;;;14.27;10.65;;;;;;;5.54;83.52;99604.16;5092918;28;20020;-50
2022/02/02 00:24:14;;;;;;;11.95;10.15;;;;;;;5.54;82.67;99611.94;5092892;28;20111;-47
2022/02/02 00:26:43;;;;;;;19.50;12.70;;;;;;;5.52;82.88;99613.88;5092742;28;20017;-48
2022/02/02 00:29:17;;;;;;;17.67;10.23;;;;;;;5.58;82.96;99621.13;5091345;28;20024;-48
2022/02/02 00:31:50;;;;;;;10.90;9.30;;;;;;;5.66;82.73;99618.59;5092598;28;20028;-49
2022/02/02 00:34:21;;;;;;;12.95;8.98;;;;;;;5.60;82.91;99609.56;5092649;28;20036;-48
2022/02/02 00:39:12;;;;;;;13.93;11.07;;;;;;;5.47;82.21;99605.66;5092482;28;20099;-48
2022/02/02 00:41:38;;;;;;;12.07;9.82;;;;;;;5.53;82.41;99599.88;5091126;28;20392;-48
2022/02/02 00:44:04;;;;;;;10.80;9.65;;;;;;;5.61;81.89;99599.97;5090885;28;20039;-48
2022/02/02 00:46:30;;;;;;;10.55;9.45;;;;;;;5.58;82.20;99600.28;5092373;28;20039;-50
2022/02/02 00:49:02;;;;;;;18.40;10.32;;;;;;;5.51;82.33;99597.41;5092577;28;20398;-49
2022/02/02 00:54:29;;;;;;;35.00;11.65;;;;;;;5.67;82.38;99583.75;5082879;28;20056;-49
2022/02/02 00:56:55;;;;;;;13.57;11.48;;;;;;;5.59;81.94;99594.09;5091907;28;20020;-49
2022/02/02 00:59:24;;;;;;;14.43;10.82;;;;;;;5.53;81.71;99595.53;5090850;28;20478;-49
2022/02/02 01:01:52;;;;;;;15.00;11.35;;;;;;;5.55;82.66;99603.16;5090770;28;20519;-48
2022/02/02 01:04:18;;;;;;;15.25;11.45;;;;;;;5.63;82.92;99605.84;5090763;28;20378;-49
2022/02/02 01:06:54;;;;;;;14.20;10.82;;;;;;;5.79;82.80;99611.28;5092073;28;20097;-48
2022/02/02 01:12:18;;;;;;;14.82;10.88;;;;;;;5.93;82.43;99609.13;5091888;28;20027;-48
2022/02/02 01:28:10;;;;;;;125.60;17.52;;;;;;;5.63;82.72;99611.06;5091895;28;20347;-49
2022/02/02 01:30:36;;;;;;;389.85;34.30;;;;;;;5.72;82.78;99605.00;5091707;28;20031;-49
2022/02/02 01:33:02;;;;;;;319.58;29.55;;;;;;;5.83;82.93;99603.16;5090461;28;20023;-49
2022/02/02 01:35:28;;;;;;;559.33;48.72;;;;;;;5.89;83.09;99608.56;5091703;28;20028;-49
2022/02/02 01:37:56;;;;;;;43.88;14.95;;;;;;;5.98;83.22;99606.94;5090457;28;20020;-48
2022/02/02 01:40:33;;;;;;;1265.32;86.97;;;;;;;6.10;83.12;99607.53;5091715;28;20031;-48
2022/02/02 01:43:07;;;;;;;393.67;33.83;;;;;;;6.19;83.19;99607.44;5091538;28;20077;-48
2022/02/02 01:45:58;;;;;;;311.15;28.80;;;;;;;6.26;83.51;99599.00;5091691;28;20106;-49
2022/02/02 01:51:08;;;;;;;15.23;11.35;;;;;;;6.39;83.42;99596.84;5091566;28;20028;-51
2022/02/02 01:54:03;;;;;;;356.45;29.95;;;;;;;6.39;83.74;99599.47;5091661;28;20035;-50
2022/02/02 01:56:21;;;;;;;541.95;40.08;;;;;;;6.37;83.79;99594.41;5091051;28;20093;-49
2022/02/02 02:01:51;;;;;;;834.65;61.85;;;;;;;6.29;83.82;99581.28;5048893;28;20033;-49
2022/02/02 02:04:16;;;;;;;597.00;45.47;;;;;;;6.37;83.87;99578.75;5032319;28;20036;-48
2022/02/02 02:06:42;;;;;;;1548.78;105.88;;;;;;;6.45;84.20;99580.59;5032178;28;20135;-49
2022/02/02 02:09:08;;;;;;;13.23;11.00;;;;;;;6.41;83.67;99574.06;5052783;28;20063;-49
2022/02/02 02:11:36;;;;;;;1494.22;96.65;;;;;;;6.39;83.65;99571.59;5035972;28;20049;-49
2022/02/02 02:16:31;;;;;;;618.58;45.90;;;;;;;6.29;83.31;99575.28;5052685;28;20032;-48
2022/02/02 02:18:58;;;;;;;382.45;34.38;;;;;;;6.28;83.40;99584.88;5052657;28;20037;-49
2022/02/02 02:21:25;;;;;;;1105.47;77.63;;;;;;;6.29;83.43;99589.13;5052587;28;20040;-49
2022/02/02 02:23:51;;;;;;;37.90;14.25;;;;;;;6.36;83.69;99587.56;5052612;28;20495;-49
2022/02/02 02:26:26;;;;;;;30.40;13.32;;;;;;;6.53;83.69;99588.50;5035742;28;20065;-48
2022/02/02 02:32:05;;;;;;;242.57;22.77;;;;;;;6.68;83.46;99575.72;5056672;28;20544;-51
2022/02/02 02:34:51;;;;;;;318.02;27.88;;;;;;;6.63;83.48;99574.56;5094824;28;20024;-51
2022/02/02 02:37:48;;;;;;;21.90;10.93;;;;;;;6.43;83.63;99572.13;5094746;28;20515;-50
2022/02/02 02:55:46;;;;;;;808.47;56.40;;;;;;;6.48;83.80;99569.03;5094248;28;20129;-49
2022/02/02 02:57:13;;;;;;;65.65;17.23;;;;;;;5.92;83.10;99550.97;5071958;28;20086;-49
2022/02/02 03:00:23;;;;;;;83.03;15.32;;;;;;;5.93;83.72;99551.78;5071951;28;20032;-48
2022/02/02 03:13:48;;;;;;;40.85;11.52;;;;;;;5.71;82.90;99556.47;5068696;28;20036;-48
2022/02/02 03:30:45;;;;;;;18.85;11.30;;;;;;;5.70;83.80;99541.81;5094080;28;20030;-51
2022/02/02 03:49:28;;;;;;;26.65;18.08;;;;;;;5.93;83.68;99533.56;5092476;28;20059;-48
2022/02/02 03:51:40;;;;;;;91.20;26.60;;;;;;;5.85;84.43;99530.88;5093353;28;20036;-51
2022/02/02 03:56:45;;;;;;;20.13;14.50;;;;;;;5.99;84.20;99528.59;5093301;28;20028;-48
2022/02/02 04:07:20;;;;;;;33.40;10.27;;;;;;;5.91;83.93;99525.06;5080440;28;20097;-48
2022/02/02 04:09:47;;;;;;;48.17;10.25;;;;;;;5.91;84.05;99525.88;5091703;28;20085;-48
2022/02/02 04:55:52;;;;;;;154.27;16.98;;;;;;;5.87;84.74;99542.78;5092307;28;20034;-49
2022/02/02 04:58:36;;;;;;;59.90;12.70;;;;;;;5.90;85.15;99536.47;5090901;28;20036;-48
2022/02/02 05:16:06;;;;;;;13.45;7.80;;;;;;;5.82;84.75;99523.38;5091972;28;20028;-48
2022/02/02 05:19:15;;;;;;;569.35;45.28;;;;;;;5.72;84.66;99523.44;5090778;28;20032;-49
2022/02/02 05:53:38;;;;;;;73.30;9.80;;;;;;;6.14;85.01;99531.50;5095726;28;20024;-49
2022/02/02 05:56:06;;;;;;;72.65;10.38;;;;;;;6.15;85.14;99542.72;5094282;28;20178;-49
2022/02/02 05:58:37;;;;;;;100.47;11.55;;;;;;;6.15;84.85;99542.72;5095541;28;20103;-49
2022/02/02 06:01:03;;;;;;;184.23;13.25;;;;;;;6.16;85.00;99539.19;5095570;28;20080;-49
2022/02/02 06:03:43;;;;;;;107.57;12.20;;;;;;;6.10;84.39;99548.41;5094199;28;20375;-49
2022/02/02 06:06:10;;;;;;;173.73;16.73;;;;;;;5.97;84.52;99553.97;5094084;28;20031;-48
2022/02/02 06:08:40;;;;;;;31.55;10.05;;;;;;;5.99;85.07;99554.66;5095464;28;20024;-50
2022/02/02 06:11:10;;;;;;;205.98;18.55;;;;;;;6.15;85.81;99548.75;5095310;28;20063;-51
2022/02/02 06:13:44;;;;;;;15.32;8.43;;;;;;;6.16;84.58;99553.00;5095324;28;20029;-48
2022/02/02 06:16:11;;;;;;;704.22;45.58;;;;;;;6.19;85.10;99562.31;5095261;28;20020;-48
2022/02/02 06:18:38;;;;;;;47.08;9.18;;;;;;;6.25;84.94;99555.69;5095226;28;20032;-48
2022/02/02 06:21:06;;;;;;;337.73;28.25;;;;;;;6.32;85.55;99560.16;5095146;28;20056;-49
2022/02/02 06:23:53;;;;;;;78.55;12.52;;;;;;;6.44;85.06;99558.13;5095155;28;20104;-48
2022/02/02 06:26:23;;;;;;;72.80;9.75;;;;;;;6.49;85.03;99555.06;5093784;28;20100;-49
2022/02/02 06:28:51;;;;;;;27.52;8.10;;;;;;;6.39;84.76;99552.53;5095011;28;20558;-49
2022/02/02 06:31:21;;;;;;;591.53;43.42;;;;;;;6.29;84.39;99565.66;5094823;28;20526;-49
2022/02/02 06:33:53;;;;;;;1233.22;75.50;;;;;;;6.35;84.72;99564.25;5094929;28;20028;-49
2022/02/02 06:36:18;;;;;;;129.20;13.35;;;;;;;6.32;85.42;99567.97;5094915;28;20493;-49
2022/02/02 06:38:44;;;;;;;37.22;7.55;;;;;;;6.39;84.96;99578.59;5094848;28;20024;-49
2022/02/02 06:41:10;;;;;;;137.27;13.73;;;;;;;6.41;85.32;99563.63;5094680;28;20028;-49
2022/02/02 06:43:36;;;;;;;131.35;13.48;;;;;;;6.44;85.06;99567.72;5093168;28;20040;-49
2022/02/02 06:46:03;;;;;;;289.77;21.13;;;;;;;6.56;85.41;99576.94;5094632;28;20073;-48
2022/02/02 06:48:32;;;;;;;427.00;29.58;;;;;;;6.65;85.36;99573.41;5093284;28;20513;-48
2022/02/02 06:51:13;;;;;;;569.08;38.53;;;;;;;6.60;84.87;99580.91;5094474;28;20031;-48
2022/02/02 06:54:00;;;;;;;197.63;18.58;;;;;;;6.58;84.58;99585.44;5093915;28;20062;-48
2022/02/02 06:57:06;;;;;;;61.72;10.35;;;;;;;6.64;85.05;99594.44;5094516;28;20032;-48
2022/02/02 07:00:01;;;;;;;8.95;5.88;;;;;;;6.63;85.06;99596.22;5094426;28;20016;-48
2022/02/02 07:02:48;;;;;;;623.65;41.42;;;;;;;6.57;84.81;99594.22;5094477;28;20032;-50
2022/02/02 07:05:50;;;;;;;11.85;5.78;;;;;;;6.53;84.40;99592.91;5094336;28;20397;-51
2022/02/02 07:08:28;;;;;;;257.30;19.88;;;;;;;6.40;84.63;99591.50;5094263;28;20024;-50
2022/02/02 07:11:08;;;;;;;16.70;6.97;;;;;;;6.29;84.78;99596.13;5094166;28;20020;-49
2022/02/02 07:27:33;;;;;;;242.35;36.15;;;;;;;6.00;84.18;99603.19;5094247;28;20040;-51
2022/02/02 07:30:19;;;;;;;444.92;33.88;;;;;;;6.22;84.70;99614.16;5093562;28;20032;-49
2022/02/02 07:32:54;;;;;;;26.35;10.20;;;;;;;6.31;84.89;99605.44;5093836;28;20024;-51
2022/02/02 07:35:35;;;;;;;65.63;11.32;;;;;;;6.32;84.59;99616.69;5093785;28;20109;-51
2022/02/02 07:38:12;;;;;;;1033.97;66.05;;;;;;;6.32;84.97;99609.69;5093720;28;20064;-50
2022/02/02 07:40:42;;;;;;;26.27;8.77;;;;;;;6.38;84.92;99616.91;5093700;28;20032;-51
2022/02/02 07:43:23;;;;;;;59.55;11.65;;;;;;;6.43;84.74;99619.06;5092077;28;20044;-50
2022/02/02 07:45:57;;;;;;;72.93;11.15;;;;;;;6.51;84.86;99616.50;5093829;28;20020;-48
2022/02/02 07:48:23;;;;;;;85.43;13.02;;;;;;;6.50;84.57;99607.06;5093538;28;20036;-48
2022/02/02 07:50:52;;;;;;;77.18;13.60;;;;;;;6.47;84.25;99609.97;5093337;28;20098;-49
2022/02/02 07:53:24;;;;;;;130.65;18.42;;;;;;;6.53;85.06;99617.19;5093390;28;20024;-49
2022/02/02 07:55:51;;;;;;;183.82;20.38;;;;;;;6.66;84.79;99624.63;5093341;28;20020;-49
2022/02/02 07:58:22;;;;;;;28.77;10.48;;;;;;;6.72;85.11;99618.81;5093287;28;20027;-48
2022/02/02 08:00:47;;;;;;;18.17;8.90;;;;;;;6.65;84.61;99617.75;5093285;28;20089;-48
2022/02/02 08:03:14;;;;;;;89.60;15.50;;;;;;;6.70;84.94;99620.75;5093247;28;20489;-49
2022/02/02 08:05:45;;;;;;;18.08;10.32;;;;;;;6.76;84.79;99621.91;5092124;28;20122;-49
2022/02/02 08:10:39;;;;;;;104.80;13.48;;;;;;;6.91;84.59;99616.97;5093246;28;20070;-48
2022/02/02 08:13:14;;;;;;;1033.80;78.85;;;;;;;6.78;84.98;99627.78;5092951;28;20051;-48
2022/02/02 08:15:40;;;;;;;25.98;12.13;;;;;;;6.88;84.93;99638.13;5091695;28;20547;-48
2022/02/02 08:18:06;;;;;;;502.70;43.42;;;;;;;6.83;84.49;99640.41;5091606;28;20028;-49
2022/02/02 08:20:32;;;;;;;140.27;18.83;;;;;;;6.75;84.54;99654.19;5091536;28;20493;-48
2022/02/02 08:22:58;;;;;;;33.25;11.73;;;;;;;6.85;84.85;99652.31;5092781;28;20115;-48
2022/02/02 08:25:33;;;;;;;19.70;9.02;;;;;;;6.99;85.02;99646.53;5110241;27;20392;-47
2022/02/02 08:28:03;;;;;;;752.78;59.17;;;;;;;7.01;84.89;99649.00;5109615;28;20133;-49
2022/02/02 08:30:30;;;;;;;164.20;20.42;;;;;;;7.13;85.29;99655.59;5109615;28;20031;-49
2022/02/02 08:32:59;;;;;;;27.92;10.48;;;;;;;7.26;85.27;99651.75;5109543;28;20035;-48
2022/02/02 08:35:36;;;;;;;105.13;14.15;;;;;;;7.20;85.00;99648.78;5108271;28;20023;-48
2022/02/02 08:43:19;;;;;;;105.78;15.30;;;;;;;7.17;84.88;99663.94;5109322;28;20047;-49
2022/02/02 08:45:47;;;;;;;165.18;16.90;;;;;;;7.30;84.90;99664.31;5107995;28;20485;-49
2022/02/02 08:48:19;;;;;;;316.20;27.15;;;;;;;7.32;84.45;99662.38;5109216;28;20489;-48
2022/02/02 08:50:53;;;;;;;18.75;9.80;;;;;;;7.29;84.36;99660.09;5109273;28;20031;-48
2022/02/02 08:58:38;;;;;;;20.02;9.90;;;;;;;7.34;84.65;99670.06;5109170;28;20078;-49
2022/02/02 09:01:10;;;;;;;28.35;9.52;;;;;;;7.31;84.20;99678.22;5109020;28;20073;-49
2022/02/02 09:06:21;;;;;;;131.07;17.08;;;;;;;7.43;84.75;99690.03;5108952;28;20035;-49
2022/02/02 09:08:49;;;;;;;69.40;11.85;;;;;;;7.58;84.94;99687.66;5108874;28;20031;-48
2022/02/02 09:35:20;;;;;;;246.13;20.27;;;;;;;8.03;84.46;99690.94;5103461;28;20032;-48
2022/02/02 09:37:47;;;;;;;302.30;24.45;;;;;;;8.18;84.96;99684.13;5093378;28;20031;-48
2022/02/02 09:42:54;;;;;;;1130.35;81.35;;;;;;;8.48;84.41;99682.72;5094722;28;20060;-48
2022/02/02 09:45:21;;;;;;;494.08;55.28;;;;;;;8.75;84.53;99688.63;5094605;28;20107;-48
2022/02/02 09:47:56;;;;;;;402.58;50.30;;;;;;;8.77;84.09;99682.25;5094567;28;20016;-49
2022/02/02 09:50:36;;;;;;;39.83;26.05;;;;;;;8.76;84.12;99680.59;5094683;28;20028;-47
2022/02/02 09:53:04;;;;;;;425.40;38.60;;;;;;;8.91;84.32;99686.00;5093232;28;20032;-49
2022/02/02 09:55:53;;;;;;;40.15;17.52;;;;;;;8.93;83.88;99688.44;5094499;28;20016;-49
2022/02/02 10:01:27;;;;;;;177.75;19.60;;;;;;;9.01;84.05;99691.06;5094416;28;20410;-49
2022/02/02 10:07:11;;;;;;;55.35;14.38;;;;;;;9.34;83.45;99689.22;5094199;28;20512;-49
2022/02/02 10:10:00;;;;;;;14.75;9.88;;;;;;;9.52;82.84;99689.00;5092911;28;20024;-49
2022/02/02 10:15:24;;;;;;;23.92;12.73;;;;;;;9.55;83.30;99695.72;5094098;28;20404;-49
2022/02/02 10:18:15;;;;;;;16.23;12.43;;;;;;;9.68;82.58;99701.25;5094107;28;20086;-49
2022/02/02 10:20:42;;;;;;;29.95;14.38;;;;;;;9.60;82.41;99711.75;5094047;28;20028;-49
2022/02/02 10:23:09;;;;;;;19.83;14.38;;;;;;;9.57;82.84;99720.75;5093878;28;20432;-49
2022/02/02 10:25:43;;;;;;;28.35;13.70;;;;;;;9.55;82.49;99714.06;5093689;28;20501;-49
2022/02/02 10:28:12;;;;;;;19.70;10.73;;;;;;;9.48;82.28;99715.72;5093872;28;20509;-49
2022/02/02 10:30:40;;;;;;;15.43;12.13;;;;;;;9.42;82.53;99718.97;5093719;28;20027;-49
2022/02/02 10:33:12;;;;;;;23.05;11.20;;;;;;;9.40;82.55;99719.19;5093792;28;20024;-49
2022/02/02 10:35:46;;;;;;;103.70;16.65;;;;;;;9.56;83.26;99710.47;5093659;28;20496;-48
2022/02/02 10:38:24;;;;;;;88.95;16.38;;;;;;;9.92;83.44;99713.44;5093604;28;20020;-48
2022/02/02 10:41:15;;;;;;;46.55;14.27;;;;;;;10.46;83.58;99711.84;5093586;28;20024;-49
2022/02/02 10:43:52;;;;;;;15.50;10.45;;;;;;;11.11;82.54;99702.66;5093451;28;20031;-48
2022/02/02 10:46:36;;;;;;;13.52;9.73;;;;;;;11.57;82.34;99694.66;5093384;28;20511;-49
2022/02/02 10:49:21;;;;;;;10.80;9.30;;;;;;;11.88;81.89;99702.31;5093081;28;20032;-50
2022/02/02 10:52:05;;;;;;;15.52;7.45;;;;;;;11.97;81.13;99688.09;5093370;28;20020;-49
2022/02/02 10:59:59;;;;;;;20.52;7.00;;;;;;;12.34;80.46;99688.09;5093186;28;20035;-49
2022/02/02 11:07:59;;;;;;;9.60;6.47;;;;;;;12.24;79.43;99683.13;5093102;28;20090;-49
2022/02/02 11:10:26;;;;;;;7.88;5.43;;;;;;;12.50;79.38;99681.78;5092962;28;20024;-49
2022/02/02 11:12:56;;;;;;;6.72;5.18;;;;;;;12.53;78.33;99678.75;5092938;28;20038;-49
2022/02/02 11:15:37;;;;;;;9.15;5.20;;;;;;;12.46;79.19;99681.31;5092905;28;20081;-49
2022/02/02 11:18:11;;;;;;;9.85;5.63;;;;;;;12.61;79.38;99675.97;5092906;28;20036;-49
2022/02/02 11:20:38;;;;;;;6.93;5.43;;;;;;;12.57;78.73;99675.53;5092766;28;20027;-49
2022/02/02 11:23:06;;;;;;;6.13;4.70;;;;;;;12.56;78.22;99671.28;5091439;28;20103;-49
2022/02/02 11:25:34;;;;;;;6.13;4.57;;;;;;;12.49;77.77;99669.59;5091107;28;20577;-50
2022/02/02 11:28:22;;;;;;;5.07;4.57;;;;;;;12.36;78.40;99667.66;5092707;28;20070;-49
2022/02/02 11:30:49;;;;;;;4.95;4.32;;;;;;;12.44;77.73;99658.84;5092919;28;20077;-49
2022/02/02 11:33:15;;;;;;;8.93;4.38;;;;;;;12.29;77.38;99658.88;5092567;28;20023;-49
2022/02/02 11:35:51;;;;;;;10.15;4.15;;;;;;;12.15;77.44;99658.75;5091255;28;20031;-49
2022/02/02 11:38:36;;;;;;;5.47;3.85;;;;;;;12.01;78.47;99649.06;5092530;28;20039;-49
2022/02/02 11:41:37;;;;;;;6.75;3.83;;;;;;;12.21;78.36;99651.91;5092451;28;20079;-49
2022/02/02 11:46:45;;;;;;;6.78;3.25;;;;;;;13.37;77.82;99646.38;5092346;28;20032;-48
2022/02/02 11:49:20;;;;;;;6.95;2.75;;;;;;;13.82;75.43;99633.56;5092320;28;20520;-49
2022/02/02 11:51:47;;;;;;;;;;;;;;;14.10;77.38;99630.00;5092699;28;20020;-48
2022/02/02 11:54:15;;;;;;;3.65;3.35;;;;;;;14.02;74.63;99628.34;5092262;28;19916;-48
2022/02/02 11:59:39;;;;;;;3.50;2.42;;;;;;;13.85;74.45;99614.72;5090646;28;20028;-48
2022/02/02 12:02:18;;;;;;;10.18;3.05;;;;;;;13.77;74.08;99614.91;5092102;28;20020;-48
2022/02/02 12:05:07;;;;;;;3.75;2.40;;;;;;;13.48;74.72;99610.72;5092061;28;20022;-47
2022/02/02 12:55:55;;;;;;;3.85;2.85;;;;;;;13.74;72.67;99575.72;5091885;28;20050;-47
2022/02/02 12:57:33;;;;;;;;;;;;;;;13.96;73.74;99565.81;5090453;28;20380;-48
2022/02/02 13:00:10;;;;;;;4.82;2.72;;;;;;;13.99;71.79;99578.63;5091564;28;20374;-48
2022/02/02 13:02:41;;;;;;;3.35;2.15;;;;;;;13.90;71.51;99572.69;5091552;28;20028;-48
2022/02/02 13:05:09;;;;;;;3.67;1.90;;;;;;;13.92;70.75;99573.34;5091336;28;20031;-48
2022/02/02 13:07:42;;;;;;;3.63;1.98;;;;;;;13.81;70.27;99567.81;5090157;28;20503;-49
2022/02/02 13:10:10;;;;;;;3.92;1.90;;;;;;;13.64;70.06;99564.72;5091712;28;20111;-48
2022/02/02 13:15:26;;;;;;;5.32;2.85;;;;;;;13.54;70.30;99570.38;5095275;28;20064;-48
2022/02/02 13:24:20;;;;;;;8.88;2.30;;;;;;;13.63;68.46;99568.38;5095029;28;20071;-47
2022/02/02 13:26:40;;;;;;;8.93;1.93;;;;;;;13.56;68.92;99566.53;5090825;28;20048;-48
2022/02/02 13:32:20;;;;;;;2.95;0.73;;;;;;;13.39;67.24;99552.88;5082335;28;20044;-48
2022/02/02 13:35:06;;;;;;;2.22;0.88;;;;;;;13.37;67.49;99557.53;5094935;28;20040;-47
2022/02/02 13:37:52;;;;;;;4.22;1.10;;;;;;;13.40;67.71;99553.72;5079326;28;20088;-48
2022/02/02 13:43:36;;;;;;;4.90;1.23;;;;;;;13.48;67.27;99547.41;5095046;28;20032;-48
2022/02/02 14:06:43;;;;;;;2.15;0.95;;;;;;;15.39;57.69;99538.81;5094239;28;20028;-49
2022/02/02 14:09:16;;;;;;;5.82;2.50;;;;;;;14.88;58.54;99536.97;5093194;28;20448;-49
2022/02/02 14:33:26;;;;;;;6.25;1.10;;;;;;;12.67;63.94;99566.44;5094055;28;20065;-48
2022/02/02 14:35:59;;;;;;;4.20;1.55;;;;;;;12.55;64.00;99569.59;5093753;28;20095;-49
2022/02/02 14:38:26;;;;;;;11.65;1.08;;;;;;;12.44;64.65;99572.75;5093704;28;20047;-49
2022/02/02 14:43:25;;;;;;;3.28;1.20;;;;;;;12.35;66.07;99581.78;5093454;28;20077;-49
2022/02/02 14:45:55;;;;;;;3.00;1.25;;;;;;;12.37;66.23;99585.88;5093609;28;20020;-48
2022/02/02 14:53:25;;;;;;;4.07;1.27;;;;;;;12.30;66.78;99587.63;5093408;28;20088;-48
2022/02/02 15:09:14;;;;;;;3.30;1.30;;;;;;;12.08;66.32;99589.44;5093036;28;20401;-49
2022/02/02 15:28:40;;;;;;;2.30;1.00;;;;;;;11.23;69.16;99571.66;5092727;28;20079;-48
2022/02/02 15:30:58;;;;;;;6.25;2.47;;;;;;;11.11;69.32;99574.75;5089341;28;20044;-48
2022/02/02 15:33:27;;;;;;;4.47;1.48;;;;;;;11.04;69.52;99562.53;5092130;28;20467;-48
2022/02/02 15:38:40;;;;;;;3.97;1.50;;;;;;;10.83;70.50;99566.69;5080942;28;20573;-50
2022/02/02 15:41:13;;;;;;;2.92;1.80;;;;;;;10.86;70.51;99570.75;5092470;28;20374;-47
2022/02/02 16:03:09;;;;;;;16.42;10.35;;;;;;;10.78;71.22;99584.78;5092170;28;20024;-49
2022/02/02 16:05:12;;;;;;;16.13;9.15;;;;;;;10.73;71.45;99579.25;5084421;28;20042;-49
2022/02/02 16:07:38;;;;;;;12.80;8.73;;;;;;;10.66;71.46;99581.75;5092151;28;20016;-48
2022/02/02 16:10:06;;;;;;;5.30;2.25;;;;;;;10.66;71.64;99573.09;5091973;28;20456;-49
2022/02/02 16:12:44;;;;;;;2.72;1.60;;;;;;;10.68;71.63;99581.59;5092024;28;20020;-48
2022/02/02 16:36:29;;;;;;;8.98;5.18;;;;;;;10.57;71.96;99586.28;5091736;28;20032;-49
2022/02/02 16:39:10;;;;;;;23.25;17.85;;;;;;;10.49;72.27;99578.50;5091851;28;20038;-49
2022/02/02 16:44:20;;;;;;;2.53;1.50;;;;;;;10.48;72.22;99587.34;5091874;28;20112;-48
2022/02/02 16:46:47;;;;;;;17.27;10.18;;;;;;;10.45;72.82;99585.09;5094700;28;20047;-48
2022/02/02 16:49:13;;;;;;;11.00;8.85;;;;;;;10.49;72.56;99581.13;5094449;28;20036;-49
2022/02/02 16:51:39;;;;;;;6.80;3.42;;;;;;;10.55;72.73;99575.16;5094387;28;20030;-48
2022/02/02 16:54:09;;;;;;;4.60;1.23;;;;;;;10.64;71.94;99577.69;5095613;28;20024;-49
2022/02/02 17:34:42;;;;;;;3.70;1.10;;;;;;;11.14;70.25;99608.53;5012648;28;20037;-48
2022/02/02 17:37:35;;;;;;;2.53;1.25;;;;;;;11.22;70.18;99607.63;5012720;28;20399;-49
2022/02/02 17:40:11;;;;;;;6.10;1.35;;;;;;;11.32;70.00;99610.78;5012386;28;20085;-48
2022/02/02 17:56:25;;;;;;;3.33;1.45;;;;;;;11.62;68.51;99597.63;5032249;28;20115;-48
2022/02/02 17:57:36;;;;;;;5.82;1.48;;;;;;;11.72;68.14;99597.34;5031705;28;20056;-48
2022/02/02 18:20:26;;;;;;;3.50;1.40;;;;;;;11.29;68.52;99605.06;5094355;28;20024;-49
2022/02/02 18:23:02;;;;;;;2.35;1.50;;;;;;;11.10;68.88;99604.63;5094057;28;20028;-48
2022/02/02 18:25:36;;;;;;;3.50;1.50;;;;;;;11.04;69.63;99601.91;5093884;28;20069;-48
2022/02/02 18:28:11;;;;;;;5.80;1.77;;;;;;;11.06;69.39;99603.38;5094058;28;20405;-47
2022/02/02 18:36:00;;;;;;;5.50;2.10;;;;;;;11.21;69.39;99606.00;5093726;28;20035;-49
2022/02/02 18:39:40;;;;;;;3.25;1.55;;;;;;;11.31;69.74;99600.50;5093759;28;20035;-48
2022/02/02 18:47:00;;;;;;;3.47;1.70;;;;;;;11.63;68.25;99609.78;5093525;28;20034;-49
2022/02/02 19:00:08;;;;;;;4.75;1.98;;;;;;;11.77;67.58;99582.63;5093879;28;20039;-48
2022/02/02 19:05:20;;;;;;;6.88;2.85;;;;;;;11.68;67.05;99567.97;5093083;28;20032;-48
2022/02/02 19:08:03;;;;;;;3.67;1.77;;;;;;;11.65;67.29;99568.34;5092567;28;20374;-48
2022/02/02 19:55:13;;;;;;;6.72;3.45;;;;;;;10.95;69.87;99567.06;5092379;28;20024;-48
2022/02/02 20:02:50;;;;;;;8.75;4.70;;;;;;;11.01;70.03;99568.97;5092246;28;20400;-49
2022/02/02 20:05:36;;;;;;;5.80;3.92;;;;;;;10.95;70.09;99569.69;5092116;28;20387;-48
2022/02/02 20:11:07;;;;;;;5.25;4.07;;;;;;;11.00;70.19;99562.88;5092078;28;20039;-49
2022/02/02 20:13:35;;;;;;;12.52;4.88;;;;;;;11.09;70.61;99560.19;5092160;28;20024;-49
2022/02/02 20:16:05;;;;;;;8.18;3.75;;;;;;;11.18;70.02;99559.06;5091995;28;20055;-49
2022/02/02 20:18:35;;;;;;;8.07;5.70;;;;;;;11.23;70.03;99559.34;5092068;28;20055;-49
2022/02/02 20:21:06;;;;;;;8.55;4.90;;;;;;;11.21;70.25;99563.97;5090530;28;20030;-48
2022/02/02 20:23:33;;;;;;;9.95;5.55;;;;;;;11.17;70.38;99573.22;5091891;28;20097;-49
2022/02/02 20:25:58;;;;;;;8.35;5.50;;;;;;;11.21;70.21;99577.09;5091922;28;20024;-49
2022/02/02 20:28:24;;;;;;;12.55;7.82;;;;;;;11.17;70.09;99565.34;5090558;28;20026;-48
2022/02/02 20:30:50;;;;;;;13.80;10.05;;;;;;;11.10;70.24;99575.72;5091773;28;20517;-50
2022/02/02 20:33:16;;;;;;;7.40;6.45;;;;;;;11.10;70.52;99572.31;5090552;28;20035;-49
2022/02/02 20:35:42;;;;;;;7.22;6.30;;;;;;;11.03;70.43;99571.38;5090442;28;20409;-49
2022/02/02 20:38:08;;;;;;;13.38;10.73;;;;;;;11.00;70.67;99570.75;5091738;28;20080;-49
2022/02/02 20:40:33;;;;;;;24.27;21.83;;;;;;;10.97;70.94;99568.50;5091745;28;20110;-50
2022/02/02 21:14:38;;;;;;;8.27;6.80;;;;;;;10.65;70.96;99527.66;5091472;28;20032;-49
2022/02/02 21:17:07;;;;;;;9.38;6.80;;;;;;;10.41;71.60;99518.22;5091486;28;20032;-49
2022/02/02 21:19:58;;;;;;;11.57;9.82;;;;;;;10.21;72.00;99525.72;5091467;28;20506;-49
2022/02/02 21:22:19;;;;;;;;;;;;;;;10.10;72.75;99524.34;5091326;28;20051;-50
2022/02/02 21:25:07;;;;;;;27.90;25.20;;;;;;;10.02;72.88;99516.56;5091224;28;19963;-49
2022/02/02 21:27:38;;;;;;;10.48;9.45;;;;;;;9.96;73.10;99527.72;5091128;28;20032;-49
2022/02/02 21:30:05;;;;;;;10.35;9.07;;;;;;;9.92;73.32;99522.03;5091320;28;20036;-49
2022/02/02 21:32:31;;;;;;;14.40;12.93;;;;;;;9.90;73.60;99518.78;5093378;28;20152;-48
2022/02/02 21:35:03;;;;;;;9.75;7.97;;;;;;;9.88;73.25;99514.66;5094906;28;20151;-49
2022/02/02 21:37:32;;;;;;;11.20;8.63;;;;;;;9.86;73.52;99520.09;5094990;28;20036;-50
2022/02/02 21:40:15;;;;;;;14.68;8.57;;;;;;;9.88;73.53;99522.53;5094875;28;20012;-49
2022/02/02 21:42:45;;;;;;;9.70;8.70;;;;;;;9.90;73.61;99520.56;5094824;28;20028;-48
2022/02/02 21:45:12;;;;;;;11.05;7.15;;;;;;;9.94;73.48;99522.66;5094668;28;20052;-49
2022/02/02 21:47:39;;;;;;;9.25;6.82;;;;;;;9.97;73.48;99524.13;5094682;28;20085;-49
2022/02/02 21:50:10;;;;;;;15.25;8.48;;;;;;;9.93;73.43;99523.66;5094649;28;20054;-49
2022/02/02 21:52:37;;;;;;;10.88;7.10;;;;;;;9.95;73.69;99526.09;5094631;28;20397;-49
2022/02/02 21:55:04;;;;;;;9.00;7.43;;;;;;;10.11;73.60;99525.97;5093230;28;20031;-49
2022/02/02 21:57:30;;;;;;;11.55;10.18;;;;;;;10.32;73.13;99524.50;5094501;28;20707;-50
2022/02/02 21:59:56;;;;;;;10.15;8.77;;;;;;;10.49;72.89;99531.25;5094419;28;20024;-49
2022/02/02 22:02:21;;;;;;;9.80;8.23;;;;;;;10.65;72.14;99529.47;5094407;28;20024;-49
2022/02/02 22:04:47;;;;;;;12.93;9.75;;;;;;;10.74;71.81;99525.75;5094276;28;20016;-48
2022/02/02 22:07:13;;;;;;;68.70;61.83;;;;;;;10.82;71.47;99528.28;5094297;28;20525;-49
2022/02/02 22:09:39;;;;;;;12.25;10.98;;;;;;;10.85;71.02;99530.56;5094288;28;20089;-48
2022/02/02 22:12:05;;;;;;;10.63;5.32;;;;;;;10.87;70.86;99535.63;5094241;28;20055;-49
2022/02/02 22:14:32;;;;;;;9.70;5.65;;;;;;;10.89;71.11;99525.75;5094111;28;20059;-49
2022/02/02 22:17:01;;;;;;;8.80;6.25;;;;;;;10.82;70.54;99519.59;5094114;28;20028;-49
2022/02/02 22:19:27;;;;;;;7.95;5.22;;;;;;;10.70;70.88;99527.91;5094042;28;20434;-49
2022/02/02 22:21:53;;;;;;;6.05;5.45;;;;;;;10.54;70.95;99522.81;5092722;28;20528;-49
2022/02/02 22:24:19;;;;;;;8.35;6.45;;;;;;;10.46;71.12;99525.53;5093946;28;20074;-49
2022/02/02 22:26:45;;;;;;;7.57;6.13;;;;;;;10.41;71.13;99525.28;5093924;28;20020;-49
2022/02/02 22:29:11;;;;;;;8.75;6.72;;;;;;;10.39;71.31;99513.13;5094211;28;20051;-49
2022/02/02 22:31:37;;;;;;;11.20;7.03;;;;;;;10.37;71.41;99507.25;5093533;28;20472;-49
2022/02/02 22:34:03;;;;;;;7.53;6.72;;;;;;;10.34;70.85;99510.25;5093773;28;20057;-49
2022/02/02 22:36:29;;;;;;;11.35;5.88;;;;;;;10.30;71.29;99495.00;5093733;28;20053;-49